الصفحة الرئيسية
METAR-TAF:

METAR-TAF

مطار :

مطار مراكش المنارة الدولي

مراكش, المغرب

دائرة عرض: 31-37N, خط طول: 008-02W, ارتفاع: 468 متر

مراقبة الطقس الحالي

تاريخ ووقت الإصدار 18 دقيقة قبل الساعة 03:30UTC
ريح 1 عقدةمن اتجاهات متغيرة
درجة الحرارة 11°درجة مئوية
الرطوبة 66%
ضغط 1025 hPa
الرؤية 10 كم أو أكثر
الغيوم لا تقل 1500 م ولا وجود لمزنة ركامية السحاب الأسود

METAR: GMMX 180330Z VRB01KT CAVOK 11/05 Q1025 NOSIG

زمن: 04:48 (03:48 UTC)

توقعات

تاريخ ووقت الإصدار 4ساعات و 48 دقيقة قبل الساعة 23:00UTC
التوقعات صالحة من18 الساعة 00 UTC إلى 19 الساعة 06 UTC
ريح 5 عقدة من الشرق/الشمال الشرقي
الرؤية: 8000 متر
نظرية الاحتمالات 30% :
مؤقت
من 18 الساعة 06 UTC إلى 18 الساعة 09 UTC
الرؤية: 3000 متر
غيوم مفككة على ارتفاع 1000 قدم
غشاء

TAF: GMMX 172300Z 1800/1906 06005KT 8000 NSC PROB30 TEMPO 1806/1809 3000 BR BKN010

أرصاد الطقس والتوقعات من أكثر من 4000 مطار (تقارير الطقس للمطار METAR والتنبؤ بالطقس بالمطارTAF).

المحطات المتاحة هي النقط الصفراء والحمراء على الخريطة.

حرك المؤشر فوق النقطة لمعرفة اسم المحطة.

ثم انقر لمعرفة أرصاد وتوقعات الطقس.

لتغيير الخارطة: اضغط على الأزرار الخضراء مع رمز الصليب الأسود للتكبير. على الزر الأخضر مع شرطة للتصغير، أو على الأسهم الخضراء للخرائط المجاورة.


METAR-TAF: